createdAt,value
2022-10-20T00:01:27.051Z,6.53
2022-10-20T00:03:55.595Z,9.13
2022-10-20T00:06:27.177Z,11.83
2022-10-20T00:08:57.014Z,7.77
2022-10-20T00:11:25.799Z,6.37
2022-10-20T00:13:55.039Z,6.77
2022-10-20T00:16:24.511Z,6.50
2022-10-20T00:18:52.841Z,10.57
2022-10-20T00:21:23.483Z,7.50
2022-10-20T00:23:50.856Z,6.03
2022-10-20T00:26:26.770Z,6.77
2022-10-20T00:28:55.074Z,8.30
2022-10-20T00:31:23.296Z,7.87
2022-10-20T00:33:50.417Z,8.20
2022-10-20T00:36:19.550Z,8.07
2022-10-20T00:38:47.430Z,6.73
2022-10-20T00:41:18.086Z,10.00
2022-10-20T00:43:55.649Z,7.47
2022-10-20T00:46:43.261Z,9.67
2022-10-20T00:49:24.182Z,10.20
2022-10-20T00:51:52.878Z,8.70
2022-10-20T00:54:26.649Z,8.20
2022-10-20T00:56:55.698Z,10.03
2022-10-20T00:59:28.196Z,9.10
2022-10-20T01:01:56.532Z,9.47
2022-10-20T01:04:24.076Z,8.80
2022-10-20T01:06:51.274Z,12.13
2022-10-20T01:09:18.669Z,8.80
2022-10-20T01:12:15.638Z,10.27
2022-10-20T01:15:16.439Z,8.60
2022-10-20T01:18:09.774Z,9.77
2022-10-20T01:21:22.710Z,12.63
2022-10-20T01:24:46.817Z,9.63
2022-10-20T01:27:28.864Z,11.90
2022-10-20T01:30:21.612Z,9.50
2022-10-20T01:32:51.621Z,12.27
2022-10-20T01:36:07.630Z,11.07
2022-10-20T01:38:45.762Z,11.27
2022-10-20T01:41:18.799Z,9.60
2022-10-20T01:43:48.608Z,10.23
2022-10-20T01:46:18.015Z,11.73
2022-10-20T01:48:47.471Z,14.17
2022-10-20T01:51:14.729Z,9.90
2022-10-20T01:53:41.765Z,10.40
2022-10-20T01:56:38.488Z,10.73
2022-10-20T02:00:03.122Z,11.60
2022-10-20T02:03:04.863Z,12.53
2022-10-20T02:06:00.813Z,11.60
2022-10-20T02:09:01.647Z,11.83
2022-10-20T02:11:53.185Z,12.60
2022-10-20T02:14:21.627Z,13.67
2022-10-20T02:16:58.530Z,13.47
2022-10-20T02:19:31.777Z,16.40
2022-10-20T02:21:58.969Z,11.93
2022-10-20T02:24:31.790Z,14.80
2022-10-20T02:27:03.805Z,14.80
2022-10-20T02:29:41.352Z,12.13
2022-10-20T02:32:10.615Z,13.57
2022-10-20T02:34:40.935Z,12.67
2022-10-20T02:37:09.926Z,15.30
2022-10-20T02:39:36.907Z,15.00
2022-10-20T02:42:04.082Z,15.20
2022-10-20T02:44:31.090Z,13.53
2022-10-20T02:46:58.330Z,14.73
2022-10-20T02:49:25.318Z,13.50
2022-10-20T02:51:52.290Z,12.10
2022-10-20T02:54:19.276Z,14.60
2022-10-20T02:56:46.303Z,14.60
2022-10-20T02:59:16.826Z,13.83
2022-10-20T03:01:44.841Z,12.10
2022-10-20T03:04:12.551Z,14.70
2022-10-20T03:06:41.032Z,12.60
2022-10-20T03:09:07.991Z,12.47
2022-10-20T03:11:34.940Z,15.73
2022-10-20T03:14:02.102Z,15.33
2022-10-20T03:16:29.170Z,13.20
2022-10-20T03:18:59.927Z,15.57
2022-10-20T03:21:30.411Z,14.83
2022-10-20T03:23:57.317Z,13.73
2022-10-20T03:26:24.247Z,12.77
2022-10-20T03:28:51.390Z,17.23
2022-10-20T03:31:18.771Z,12.50
2022-10-20T03:33:45.672Z,14.60
2022-10-20T03:36:12.649Z,14.53
2022-10-20T03:38:43.022Z,13.27
2022-10-20T03:41:10.853Z,12.77
2022-10-20T03:43:39.875Z,15.87
2022-10-20T03:46:11.872Z,13.20
2022-10-20T03:48:39.930Z,12.73
2022-10-20T03:51:09.327Z,13.90
2022-10-20T03:53:36.611Z,12.50
2022-10-20T03:56:09.644Z,12.53
2022-10-20T03:58:36.837Z,17.37
2022-10-20T04:01:04.317Z,14.80
2022-10-20T04:03:31.243Z,16.80
2022-10-20T04:05:58.209Z,14.87
2022-10-20T04:08:25.284Z,14.70
2022-10-20T04:10:52.348Z,13.53
2022-10-20T04:13:19.498Z,14.80
2022-10-20T04:15:46.422Z,12.40
2022-10-20T04:18:13.566Z,12.33
2022-10-20T04:20:43.582Z,18.50
2022-10-20T04:23:12.396Z,12.93
2022-10-20T04:25:47.546Z,14.73
2022-10-20T04:28:16.954Z,16.97
2022-10-20T04:30:44.881Z,13.33
2022-10-20T04:33:12.977Z,11.93
2022-10-20T04:35:40.679Z,12.83
2022-10-20T04:38:08.390Z,12.70
2022-10-20T04:40:35.291Z,12.10
2022-10-20T04:43:02.641Z,15.83
2022-10-20T04:45:29.584Z,11.10
2022-10-20T04:47:56.561Z,11.97
2022-10-20T04:50:23.497Z,12.00
2022-10-20T04:53:07.472Z,15.13
2022-10-20T04:55:35.253Z,11.20
2022-10-20T04:58:02.205Z,12.27
2022-10-20T05:00:29.324Z,11.27
2022-10-20T05:02:56.235Z,12.43
2022-10-20T05:05:23.157Z,16.80
2022-10-20T05:07:50.090Z,12.30
2022-10-20T05:10:19.248Z,13.07
2022-10-20T05:12:46.192Z,11.90
2022-10-20T05:15:13.150Z,13.50
2022-10-20T05:17:40.008Z,13.67
2022-10-20T05:20:07.579Z,14.47
2022-10-20T05:22:35.049Z,11.70
2022-10-20T05:25:24.564Z,11.50
2022-10-20T05:27:49.187Z,11.43
2022-10-20T05:30:16.070Z,12.10
2022-10-20T05:32:43.052Z,11.93
2022-10-20T05:35:10.316Z,13.03
2022-10-20T05:37:45.577Z,12.97
2022-10-20T05:40:13.068Z,12.70
2022-10-20T05:42:40.003Z,12.63
2022-10-20T05:45:08.238Z,11.87
2022-10-20T05:47:35.716Z,12.70
2022-10-20T05:50:02.799Z,11.87
2022-10-20T05:52:29.753Z,12.60
2022-10-20T05:54:56.937Z,11.13
2022-10-20T05:57:23.883Z,14.67
2022-10-20T05:59:51.006Z,10.10
2022-10-20T06:02:18.081Z,15.93
2022-10-20T06:04:45.097Z,13.77
2022-10-20T06:07:12.037Z,13.45
2022-10-20T06:09:48.237Z,13.60
2022-10-20T06:12:15.235Z,12.27
2022-10-20T06:14:42.452Z,13.47
2022-10-20T06:17:09.780Z,10.70
2022-10-20T06:19:36.708Z,9.63
2022-10-20T06:22:05.975Z,11.50
2022-10-20T06:24:34.221Z,11.53
2022-10-20T06:27:01.631Z,11.90
2022-10-20T06:29:28.545Z,11.23
2022-10-20T06:31:56.798Z,9.77
2022-10-20T06:34:25.654Z,11.03
2022-10-20T06:37:01.499Z,12.03
2022-10-20T06:39:28.797Z,15.43
2022-10-20T06:41:55.980Z,11.13
2022-10-20T06:44:24.648Z,9.53
2022-10-20T06:46:54.687Z,15.80
2022-10-20T06:49:22.506Z,10.63
2022-10-20T06:51:50.105Z,10.37
2022-10-20T06:54:17.996Z,10.27
2022-10-20T06:56:44.879Z,10.27
2022-10-20T06:59:12.118Z,9.93
2022-10-20T07:01:39.945Z,11.03
2022-10-20T07:04:11.649Z,10.77
2022-10-20T07:06:41.841Z,9.90
2022-10-20T07:09:14.219Z,10.40
2022-10-20T07:11:41.789Z,10.27
2022-10-20T07:14:12.635Z,9.80
2022-10-20T07:16:39.816Z,9.90
2022-10-20T07:19:06.772Z,10.73
2022-10-20T07:21:38.378Z,9.03
2022-10-20T07:24:09.191Z,9.37
2022-10-20T07:26:39.333Z,8.87
2022-10-20T07:29:06.837Z,8.73
2022-10-20T07:31:47.012Z,9.10
2022-10-20T07:34:27.075Z,9.53
2022-10-20T07:36:56.173Z,9.33
2022-10-20T07:39:23.666Z,9.60
2022-10-20T07:41:51.397Z,8.57
2022-10-20T07:44:19.356Z,8.83
2022-10-20T07:46:46.329Z,10.60
2022-10-20T07:52:00.510Z,8.70
2022-10-20T07:54:27.401Z,8.57
2022-10-20T07:56:54.389Z,8.60
2022-10-20T07:59:21.321Z,8.60
2022-10-20T08:01:48.637Z,8.47
2022-10-20T08:04:15.614Z,8.20
2022-10-20T08:06:42.566Z,8.33
2022-10-20T08:09:09.489Z,8.47
2022-10-20T08:11:36.532Z,9.00
2022-10-20T08:14:03.751Z,7.63
2022-10-20T08:16:33.674Z,7.80
2022-10-20T08:21:41.969Z,8.53
2022-10-20T08:24:08.946Z,10.23
2022-10-20T08:26:35.882Z,8.70
2022-10-20T08:29:03.046Z,10.73
2022-10-20T08:31:30.089Z,7.70
2022-10-20T08:33:57.261Z,8.70
2022-10-20T08:36:24.613Z,7.30
2022-10-20T08:38:51.669Z,7.40
2022-10-20T08:41:22.511Z,7.40
2022-10-20T08:43:53.594Z,8.37
2022-10-20T08:46:26.230Z,7.80
2022-10-20T08:48:53.575Z,7.53
2022-10-20T08:51:34.142Z,8.93
2022-10-20T08:54:03.043Z,8.87
2022-10-20T08:56:33.848Z,7.43
2022-10-20T08:59:03.378Z,7.67
2022-10-20T09:01:34.863Z,8.97
2022-10-20T09:04:37.177Z,9.13
2022-10-20T09:07:17.219Z,8.73
2022-10-20T09:09:44.650Z,8.07
2022-10-20T09:12:15.358Z,7.97
2022-10-20T09:14:42.539Z,8.87
2022-10-20T09:17:18.629Z,8.47
2022-10-20T09:19:57.446Z,10.10
2022-10-20T09:22:30.946Z,9.40
2022-10-20T09:25:01.774Z,8.40
2022-10-20T09:27:36.036Z,8.37
2022-10-20T09:30:22.894Z,10.30
2022-10-20T09:32:50.428Z,8.67
2022-10-20T09:35:35.938Z,9.67
2022-10-20T09:38:23.860Z,8.07
2022-10-20T09:41:20.368Z,8.17
2022-10-20T09:44:15.101Z,9.80
2022-10-20T09:46:49.079Z,15.57
2022-10-20T09:49:27.538Z,10.43
2022-10-20T09:51:55.330Z,9.27
2022-10-20T09:54:25.159Z,9.43
2022-10-20T09:56:53.758Z,8.70
2022-10-20T09:59:26.215Z,8.70
2022-10-20T10:02:22.085Z,9.33
2022-10-20T10:04:52.034Z,9.80
2022-10-20T10:07:21.949Z,8.63
2022-10-20T10:10:08.171Z,9.47
2022-10-20T10:12:36.510Z,8.80
2022-10-20T10:15:23.443Z,10.93
2022-10-20T10:17:51.238Z,9.70
2022-10-20T10:20:18.041Z,9.80
2022-10-20T10:22:45.211Z,10.10
2022-10-20T10:25:21.582Z,8.77
2022-10-20T10:28:20.644Z,9.40
2022-10-20T10:30:50.078Z,9.80
2022-10-20T10:33:30.070Z,9.60
2022-10-20T10:35:57.733Z,9.30
2022-10-20T10:38:24.928Z,9.90
2022-10-20T10:41:20.760Z,9.03
2022-10-20T10:44:09.754Z,8.07
2022-10-20T10:46:53.351Z,8.77
2022-10-20T10:49:28.892Z,8.30
2022-10-20T10:52:08.690Z,8.63
2022-10-20T10:54:48.849Z,7.83
2022-10-20T10:57:43.124Z,8.53
2022-10-20T11:00:40.334Z,8.47
2022-10-20T11:03:34.058Z,7.73
2022-10-20T11:06:14.790Z,8.43
2022-10-20T11:09:10.673Z,7.77
2022-10-20T11:11:49.570Z,8.50
2022-10-20T11:14:58.985Z,9.53
2022-10-20T11:18:21.517Z,9.50
2022-10-20T11:21:22.555Z,9.77
2022-10-20T11:24:10.622Z,7.70
2022-10-20T11:26:54.392Z,8.00
2022-10-20T11:29:42.069Z,8.50
2022-10-20T11:32:50.623Z,7.50
2022-10-20T11:35:40.617Z,9.00
2022-10-20T11:38:31.327Z,7.53
2022-10-20T11:41:06.267Z,7.97
2022-10-20T11:44:04.255Z,7.70
2022-10-20T11:46:46.513Z,7.17
2022-10-20T11:49:13.529Z,8.37
2022-10-20T11:52:39.773Z,7.20
2022-10-20T11:55:27.198Z,8.77
2022-10-20T11:58:13.358Z,6.13
2022-10-20T12:01:01.399Z,6.90
2022-10-20T12:03:57.390Z,6.30
2022-10-20T12:07:05.902Z,6.87
2022-10-20T12:10:33.033Z,6.60
2022-10-20T12:13:18.378Z,6.83
2022-10-20T12:15:51.791Z,8.10
2022-10-20T12:18:27.915Z,7.17
2022-10-20T12:21:04.562Z,7.97
2022-10-20T12:23:43.777Z,6.67
2022-10-20T12:26:34.924Z,6.70
2022-10-20T12:29:32.746Z,6.13
2022-10-20T12:32:21.743Z,7.33
2022-10-20T12:34:54.838Z,7.07
2022-10-20T12:37:24.499Z,6.57
2022-10-20T12:39:53.921Z,6.23
2022-10-20T12:42:33.789Z,7.03
2022-10-20T12:45:20.621Z,7.17
2022-10-20T12:47:55.411Z,6.80
2022-10-20T12:50:47.802Z,6.30
2022-10-20T12:53:17.965Z,6.70
2022-10-20T12:56:14.412Z,7.83
2022-10-20T12:59:38.595Z,7.83
2022-10-20T13:02:11.019Z,7.87
2022-10-20T13:05:04.058Z,8.30
2022-10-20T13:07:49.164Z,7.60
2022-10-20T13:10:29.444Z,6.37
2022-10-20T13:13:02.388Z,6.37
2022-10-20T13:15:34.819Z,6.80
2022-10-20T13:18:13.191Z,6.60
2022-10-20T13:20:55.733Z,7.77
2022-10-20T13:23:30.174Z,8.03
2022-10-20T13:26:16.901Z,8.03
2022-10-20T13:28:53.005Z,6.83
2022-10-20T13:31:47.896Z,7.87
2022-10-20T13:34:43.062Z,7.70
2022-10-20T13:37:31.806Z,6.93
2022-10-20T13:40:36.729Z,7.40
2022-10-20T13:43:46.537Z,7.50
2022-10-20T13:46:53.765Z,7.40
2022-10-20T13:49:52.800Z,7.30
2022-10-20T13:52:23.164Z,6.57
2022-10-20T13:54:52.072Z,7.10
2022-10-20T13:57:31.575Z,6.97
2022-10-20T14:00:30.337Z,6.77
2022-10-20T14:03:21.844Z,7.50
2022-10-20T14:05:48.935Z,10.50
2022-10-20T14:08:19.932Z,7.87
2022-10-20T14:10:55.146Z,8.60
2022-10-20T14:13:27.731Z,8.10
2022-10-20T14:15:58.076Z,9.43
2022-10-20T14:18:32.456Z,9.00
2022-10-20T14:21:08.760Z,8.83
2022-10-20T14:23:38.563Z,8.60
2022-10-20T14:26:12.181Z,9.27
2022-10-20T14:28:40.296Z,8.97
2022-10-20T14:31:10.497Z,8.57
2022-10-20T14:33:46.373Z,8.10
2022-10-20T14:39:01.372Z,7.83
2022-10-20T14:41:33.246Z,7.80
2022-10-20T14:44:10.050Z,8.07
2022-10-20T14:46:46.463Z,7.63
2022-10-20T14:49:34.706Z,8.53
2022-10-20T14:52:08.306Z,8.70
2022-10-20T14:54:39.331Z,10.93
2022-10-20T14:57:09.247Z,9.60
2022-10-20T15:00:05.993Z,14.80
2022-10-20T15:02:40.785Z,11.03
2022-10-20T15:05:43.015Z,10.50
2022-10-20T15:08:24.495Z,8.50
2022-10-20T15:10:52.500Z,8.70
2022-10-20T15:13:29.891Z,8.43
2022-10-20T15:16:00.592Z,9.20
2022-10-20T15:18:29.115Z,9.47
2022-10-20T15:20:56.934Z,9.13
2022-10-20T15:23:27.508Z,10.80
2022-10-20T15:26:05.710Z,10.40
2022-10-20T15:28:50.268Z,11.67
2022-10-20T15:31:29.371Z,11.20
2022-10-20T15:33:58.004Z,13.97
2022-10-20T15:36:32.835Z,13.13
2022-10-20T15:39:00.713Z,12.10
2022-10-20T15:41:31.372Z,11.83
2022-10-20T15:44:22.220Z,11.63
2022-10-20T15:46:55.426Z,12.50
2022-10-20T15:49:22.614Z,13.83
2022-10-20T15:51:52.709Z,11.30
2022-10-20T15:54:21.953Z,13.77
2022-10-20T15:56:49.625Z,13.30
2022-10-20T15:59:16.567Z,14.27
2022-10-20T16:01:43.666Z,13.70
2022-10-20T16:04:32.742Z,16.93
2022-10-20T16:07:02.879Z,14.73
2022-10-20T16:09:30.559Z,14.90
2022-10-20T16:11:57.840Z,15.07
2022-10-20T16:14:24.930Z,12.87
2022-10-20T16:16:51.979Z,12.27
2022-10-20T16:19:19.065Z,13.90
2022-10-20T16:21:46.004Z,16.97
2022-10-20T16:24:13.095Z,13.40
2022-10-20T16:26:40.209Z,14.00
2022-10-20T16:29:07.248Z,13.17
2022-10-20T16:31:34.251Z,14.33
2022-10-20T16:34:01.367Z,15.67
2022-10-20T16:36:28.849Z,16.67
2022-10-20T16:38:57.408Z,14.77
2022-10-20T16:41:25.849Z,17.10
2022-10-20T16:43:55.239Z,18.00
2022-10-20T16:46:24.487Z,15.40
2022-10-20T16:48:51.386Z,15.23
2022-10-20T16:51:18.488Z,16.90
2022-10-20T16:53:45.520Z,15.27
2022-10-20T16:56:15.402Z,16.27
2022-10-20T16:58:45.531Z,18.73
2022-10-20T17:01:14.119Z,18.30
2022-10-20T17:03:47.895Z,16.90
2022-10-20T17:06:17.536Z,20.73
2022-10-20T17:08:45.074Z,17.43
2022-10-20T17:11:22.957Z,18.50
2022-10-20T17:13:50.625Z,19.63
2022-10-20T17:16:28.827Z,15.70
2022-10-20T17:19:02.251Z,16.33
2022-10-20T17:21:31.670Z,15.80
2022-10-20T17:23:58.915Z,16.37
2022-10-20T17:26:30.423Z,16.10
2022-10-20T17:29:00.050Z,19.40
2022-10-20T17:31:29.225Z,19.60
2022-10-20T17:34:02.382Z,28.23
2022-10-20T17:36:32.089Z,17.70
2022-10-20T17:39:03.916Z,19.80
2022-10-20T17:41:30.934Z,20.07
2022-10-20T17:44:02.379Z,20.23
2022-10-20T17:46:34.149Z,19.37
2022-10-20T17:49:02.051Z,19.40
2022-10-20T17:51:33.579Z,18.53
2022-10-20T17:54:04.294Z,25.80
2022-10-20T17:56:36.153Z,29.10
2022-10-20T17:59:05.696Z,23.00
2022-10-20T18:01:37.046Z,39.20
2022-10-20T18:04:15.603Z,20.37
2022-10-20T18:06:44.587Z,27.25
2022-10-20T18:09:16.311Z,40.23
2022-10-20T18:11:48.810Z,34.97
2022-10-20T18:14:16.975Z,20.20
2022-10-20T18:16:45.952Z,22.70
2022-10-20T18:19:18.047Z,18.33
2022-10-20T18:21:45.471Z,21.50
2022-10-20T18:24:14.794Z,20.00
2022-10-20T18:26:42.025Z,37.70
2022-10-20T18:29:10.698Z,26.17
2022-10-20T18:31:39.717Z,25.30
2022-10-20T18:34:11.013Z,25.37
2022-10-20T18:36:42.003Z,30.50
2022-10-20T18:39:14.270Z,24.27
2022-10-20T18:41:43.373Z,19.30
2022-10-20T18:44:17.173Z,25.77
2022-10-20T18:46:46.307Z,24.90
2022-10-20T18:49:15.824Z,22.13
2022-10-20T18:51:45.393Z,39.90
2022-10-20T18:54:13.395Z,23.20
2022-10-20T18:56:40.801Z,29.40
2022-10-20T18:59:13.742Z,26.60
2022-10-20T19:01:41.138Z,22.43
2022-10-20T19:04:10.416Z,25.73
2022-10-20T19:06:41.127Z,20.43
2022-10-20T19:09:12.651Z,22.97
2022-10-20T19:11:40.577Z,21.80
2022-10-20T19:14:09.816Z,20.07
2022-10-20T19:16:38.167Z,21.10
2022-10-20T19:19:08.869Z,23.53
2022-10-20T19:21:36.820Z,22.17
2022-10-20T19:24:23.044Z,24.17
2022-10-20T19:27:24.689Z,23.27
2022-10-20T19:29:44.816Z,23.60
2022-10-20T19:32:12.139Z,22.23
2022-10-20T19:34:40.537Z,20.10
2022-10-20T19:37:08.801Z,19.73
2022-10-20T19:39:40.418Z,21.10
2022-10-20T19:42:09.129Z,19.13
2022-10-20T19:44:36.935Z,30.40
2022-10-20T19:47:05.141Z,19.40
2022-10-20T19:49:32.455Z,25.45
2022-10-20T19:52:00.057Z,21.30
2022-10-20T19:54:27.178Z,26.23
2022-10-20T19:56:54.156Z,22.67
2022-10-20T19:59:21.499Z,22.70
2022-10-20T20:01:49.945Z,22.00
2022-10-20T20:04:16.979Z,25.33
2022-10-20T20:06:43.932Z,25.70
2022-10-20T20:09:12.221Z,20.93
2022-10-20T20:11:39.960Z,20.30
2022-10-20T20:14:19.151Z,21.33
2022-10-20T20:16:46.901Z,23.57
2022-10-20T20:19:16.470Z,22.67
2022-10-20T20:21:43.970Z,21.23
2022-10-20T20:24:12.807Z,21.00
2022-10-20T20:26:39.856Z,23.70
2022-10-20T20:29:06.916Z,22.97
2022-10-20T20:31:34.076Z,21.53
2022-10-20T20:34:01.003Z,21.50
2022-10-20T20:36:29.114Z,20.37
2022-10-20T20:38:58.529Z,19.60
2022-10-20T20:41:27.883Z,22.77
2022-10-20T20:43:55.003Z,19.93
2022-10-20T20:46:24.555Z,24.37
2022-10-20T20:48:51.945Z,27.50
2022-10-20T20:51:19.171Z,34.27
2022-10-20T20:53:46.380Z,28.10
2022-10-20T20:56:16.570Z,61.37
2022-10-20T20:58:51.929Z,20.93
2022-10-20T21:01:27.495Z,18.10
2022-10-20T21:03:57.371Z,19.33
2022-10-20T21:06:33.271Z,21.60
2022-10-20T21:09:08.633Z,18.90
2022-10-20T21:11:35.893Z,18.57
2022-10-20T21:14:04.006Z,17.87
2022-10-20T21:16:36.922Z,18.87
2022-10-20T21:19:10.069Z,19.00
2022-10-20T21:21:44.574Z,17.20
2022-10-20T21:24:12.762Z,19.27
2022-10-20T21:26:40.384Z,27.83
2022-10-20T21:29:07.769Z,18.47
2022-10-20T21:31:34.784Z,24.43
2022-10-20T21:34:04.274Z,17.50
2022-10-20T21:36:34.715Z,17.60
2022-10-20T21:39:04.630Z,17.47
2022-10-20T21:41:33.991Z,18.63
2022-10-20T21:44:02.425Z,17.67
2022-10-20T21:46:36.007Z,18.90
2022-10-20T21:49:19.890Z,20.37
2022-10-20T21:51:52.192Z,17.20
2022-10-20T21:56:54.363Z,18.77
2022-10-20T21:59:28.126Z,18.27
2022-10-20T22:01:58.941Z,17.27
2022-10-20T22:04:28.612Z,18.80
2022-10-20T22:06:56.590Z,18.63
2022-10-20T22:09:23.986Z,20.37
2022-10-20T22:11:55.196Z,20.17
2022-10-20T22:14:22.718Z,19.43
2022-10-20T22:16:49.872Z,18.23
2022-10-20T22:19:22.126Z,17.80
2022-10-20T22:21:51.328Z,18.80
2022-10-20T22:24:19.014Z,18.53
2022-10-20T22:26:47.057Z,18.87
2022-10-20T22:29:14.024Z,21.37
2022-10-20T22:31:41.186Z,16.20
2022-10-20T22:34:09.184Z,17.73
2022-10-20T22:36:36.742Z,19.53
2022-10-20T22:39:04.939Z,18.90
2022-10-20T22:41:31.956Z,20.63
2022-10-20T22:43:58.891Z,19.70
2022-10-20T22:46:26.358Z,17.53
2022-10-20T22:48:53.443Z,20.10
2022-10-20T22:51:20.485Z,17.53
2022-10-20T22:53:47.388Z,22.63
2022-10-20T22:56:19.009Z,19.80
2022-10-20T22:58:47.945Z,18.90
2022-10-20T23:01:19.151Z,20.00
2022-10-20T23:03:46.890Z,18.13
2022-10-20T23:06:18.981Z,20.60
2022-10-20T23:08:49.321Z,19.73
2022-10-20T23:11:17.432Z,19.70
2022-10-20T23:13:45.845Z,22.50
2022-10-20T23:16:13.617Z,20.47
2022-10-20T23:18:40.843Z,20.73
2022-10-20T23:21:08.147Z,22.87
2022-10-20T23:23:37.391Z,20.87
2022-10-20T23:26:06.122Z,22.27
2022-10-20T23:28:34.459Z,25.83
2022-10-20T23:31:11.208Z,21.20
2022-10-20T23:33:40.434Z,23.37
2022-10-20T23:36:08.141Z,21.70
2022-10-20T23:38:35.466Z,20.70
2022-10-20T23:41:02.603Z,22.17
2022-10-20T23:43:29.667Z,21.77
2022-10-20T23:45:56.903Z,24.07
2022-10-20T23:48:24.035Z,22.17
2022-10-20T23:50:51.255Z,22.03
2022-10-20T23:53:18.667Z,24.00
2022-10-20T23:55:46.372Z,24.07
2022-10-20T23:58:13.576Z,23.93
